sensor_id;sensor_type;location;lat;lon;timestamp;pressure;altitude;pressure_sealevel;temperature;humidity
9721;BME280;4899;42.644;23.366;2023-04-08T00:02:02;94306.03;;;4.83;100.00
9721;BME280;4899;42.644;23.366;2023-04-08T00:04:27;94306.19;;;4.92;100.00
9721;BME280;4899;42.644;23.366;2023-04-08T00:06:53;94300.66;;;4.85;100.00
9721;BME280;4899;42.644;23.366;2023-04-08T00:09:18;94312.34;;;4.91;100.00
9721;BME280;4899;42.644;23.366;2023-04-08T00:11:44;94304.47;;;4.87;100.00
9721;BME280;4899;42.644;23.366;2023-04-08T00:14:10;94313.31;;;4.95;100.00
9721;BME280;4899;42.644;23.366;2023-04-08T00:16:35;94309.28;;;4.89;100.00
9721;BME280;4899;42.644;23.366;2023-04-08T00:19:01;94308.31;;;4.85;100.00
9721;BME280;4899;42.644;23.366;2023-04-08T00:21:26;94308.31;;;4.85;100.00
9721;BME280;4899;42.644;23.366;2023-04-08T00:23:52;94311.34;;;4.87;100.00
9721;BME280;4899;42.644;23.366;2023-04-08T00:26:18;94316.44;;;4.87;100.00
9721;BME280;4899;42.644;23.366;2023-04-08T00:28:44;94316.44;;;4.87;100.00
9721;BME280;4899;42.644;23.366;2023-04-08T00:31:09;94316.44;;;4.87;100.00
9721;BME280;4899;42.644;23.366;2023-04-08T00:33:35;94312.88;;;4.88;100.00
9721;BME280;4899;42.644;23.366;2023-04-08T00:36:00;94314.13;;;4.90;100.00
9721;BME280;4899;42.644;23.366;2023-04-08T00:38:26;94308.00;;;4.91;100.00
9721;BME280;4899;42.644;23.366;2023-04-08T00:40:51;94315.63;;;4.91;100.00
9721;BME280;4899;42.644;23.366;2023-04-08T00:43:17;94320.47;;;4.93;100.00
9721;BME280;4899;42.644;23.366;2023-04-08T00:45:45;94321.00;;;4.90;100.00
9721;BME280;4899;42.644;23.366;2023-04-08T00:48:11;94322.31;;;4.87;100.00
9721;BME280;4899;42.644;23.366;2023-04-08T00:50:36;94314.28;;;4.70;100.00
9721;BME280;4899;42.644;23.366;2023-04-08T00:53:02;94331.06;;;4.76;100.00
9721;BME280;4899;42.644;23.366;2023-04-08T00:55:27;94329.81;;;4.74;100.00
9721;BME280;4899;42.644;23.366;2023-04-08T00:57:53;94323.47;;;4.71;100.00
9721;BME280;4899;42.644;23.366;2023-04-08T01:00:18;94333.41;;;4.68;100.00
9721;BME280;4899;42.644;23.366;2023-04-08T01:05:27;94328.41;;;4.57;100.00
9721;BME280;4899;42.644;23.366;2023-04-08T01:07:55;94327.88;;;4.60;100.00
9721;BME280;4899;42.644;23.366;2023-04-08T01:10:32;94332.16;;;4.65;100.00
9721;BME280;4899;42.644;23.366;2023-04-08T01:13:04;94321.75;;;4.61;100.00
9721;BME280;4899;42.644;23.366;2023-04-08T01:15:34;94322.25;;;4.63;100.00
9721;BME280;4899;42.644;23.366;2023-04-08T01:18:05;94336.97;;;4.67;100.00
9721;BME280;4899;42.644;23.366;2023-04-08T01:20:31;94324.81;;;4.58;100.00
9721;BME280;4899;42.644;23.366;2023-04-08T01:25:45;94328.03;;;4.69;100.00
9721;BME280;4899;42.644;23.366;2023-04-08T01:28:14;94321.75;;;4.61;100.00
9721;BME280;4899;42.644;23.366;2023-04-08T01:30:41;94330.88;;;4.68;100.00
9721;BME280;4899;42.644;23.366;2023-04-08T01:33:13;94323.53;;;4.61;100.00
9721;BME280;4899;42.644;23.366;2023-04-08T01:35:39;94318.97;;;4.58;100.00
9721;BME280;4899;42.644;23.366;2023-04-08T01:38:07;94330.94;;;4.57;100.00
9721;BME280;4899;42.644;23.366;2023-04-08T01:40:34;94336.53;;;4.59;100.00
9721;BME280;4899;42.644;23.366;2023-04-08T01:43:03;94337.06;;;4.56;100.00
9721;BME280;4899;42.644;23.366;2023-04-08T01:45:31;94326.94;;;4.51;100.00
9721;BME280;4899;42.644;23.366;2023-04-08T01:47:57;94323.84;;;4.54;100.00
9721;BME280;4899;42.644;23.366;2023-04-08T01:50:25;94324.81;;;4.58;100.00
9721;BME280;4899;42.644;23.366;2023-04-08T01:52:51;94324.81;;;4.58;100.00
9721;BME280;4899;42.644;23.366;2023-04-08T01:55:18;94325.09;;;4.57;100.00
9721;BME280;4899;42.644;23.366;2023-04-08T01:57:48;94333.44;;;4.62;100.00
9721;BME280;4899;42.644;23.366;2023-04-08T02:00:18;94335.47;;;4.66;100.00
9721;BME280;4899;42.644;23.366;2023-04-08T02:02:45;94340.78;;;4.74;100.00
9721;BME280;4899;42.644;23.366;2023-04-08T02:05:12;94339.75;;;4.75;100.00
9721;BME280;4899;42.644;23.366;2023-04-08T02:07:38;94342.56;;;4.74;100.00
9721;BME280;4899;42.644;23.366;2023-04-08T02:10:03;94345.06;;;4.79;100.00
9721;BME280;4899;42.644;23.366;2023-04-08T02:12:29;94341.00;;;4.78;100.00
9721;BME280;4899;42.644;23.366;2023-04-08T02:14:55;94349.63;;;4.82;100.00
9721;BME280;4899;42.644;23.366;2023-04-08T02:17:44;94345.06;;;4.79;100.00
9721;BME280;4899;42.644;23.366;2023-04-08T02:20:33;94354.19;;;4.85;100.00
9721;BME280;4899;42.644;23.366;2023-04-08T02:23:20;94349.84;;;4.85;100.00
9721;BME280;4899;42.644;23.366;2023-04-08T02:25:47;94345.28;;;4.82;100.00
9721;BME280;4899;42.644;23.366;2023-04-08T02:28:14;94347.78;;;4.87;100.00
9721;BME280;4899;42.644;23.366;2023-04-08T02:30:43;94353.09;;;4.91;100.00
9721;BME280;4899;42.644;23.366;2023-04-08T02:33:10;94336.84;;;4.87;100.00
9721;BME280;4899;42.644;23.366;2023-04-08T02:35:39;94337.38;;;4.84;100.00
9721;BME280;4899;42.644;23.366;2023-04-08T02:38:06;94349.53;;;4.92;100.00
9721;BME280;4899;42.644;23.366;2023-04-08T02:40:32;94350.56;;;4.91;100.00
9721;BME280;4899;42.644;23.366;2023-04-08T02:42:59;94351.03;;;4.93;100.00
9721;BME280;4899;42.644;23.366;2023-04-08T02:45:40;94356.69;;;4.90;100.00
9721;BME280;4899;42.644;23.366;2023-04-08T02:48:06;94347.03;;;4.87;100.00
9721;BME280;4899;42.644;23.366;2023-04-08T02:50:32;94349.56;;;4.87;100.00
9721;BME280;4899;42.644;23.366;2023-04-08T02:52:57;94350.06;;;4.89;100.00
9721;BME280;4899;42.644;23.366;2023-04-08T02:55:23;94339.97;;;4.79;100.00
9721;BME280;4899;42.644;23.366;2023-04-08T02:57:48;94337.19;;;4.75;100.00
9721;BME280;4899;42.644;23.366;2023-04-08T03:00:14;94351.63;;;4.85;100.00
9721;BME280;4899;42.644;23.366;2023-04-08T03:02:40;94357.75;;;4.84;100.00
9721;BME280;4899;42.644;23.366;2023-04-08T03:05:06;94350.16;;;4.79;100.00
9721;BME280;4899;42.644;23.366;2023-04-08T03:07:32;94361.34;;;4.83;100.00
9721;BME280;4899;42.644;23.366;2023-04-08T03:09:58;94354.22;;;4.80;100.00
9721;BME280;4899;42.644;23.366;2023-04-08T03:12:23;94359.00;;;4.86;100.00
9721;BME280;4899;42.644;23.366;2023-04-08T03:14:51;94357.75;;;4.84;100.00
9721;BME280;4899;42.644;23.366;2023-04-08T03:17:17;94354.19;;;4.85;100.00
9721;BME280;4899;42.644;23.366;2023-04-08T03:19:43;94352.66;;;4.84;100.00
9721;BME280;4899;42.644;23.366;2023-04-08T03:22:08;94344.25;;;4.83;100.00
9721;BME280;4899;42.644;23.366;2023-04-08T03:24:36;94353.09;;;4.91;100.00
9721;BME280;4899;42.644;23.366;2023-04-08T03:27:02;94343.28;;;4.79;100.00
9721;BME280;4899;42.644;23.366;2023-04-08T03:29:28;94363.63;;;4.84;100.00
9721;BME280;4899;42.644;23.366;2023-04-08T03:31:53;94358.28;;;4.81;100.00
9721;BME280;4899;42.644;23.366;2023-04-08T03:34:19;94369.25;;;4.81;100.00
9721;BME280;4899;42.644;23.366;2023-04-08T03:36:44;94358.06;;;4.77;100.00
9721;BME280;4899;42.644;23.366;2023-04-08T03:39:10;94357.84;;;4.74;100.00
9721;BME280;4899;42.644;23.366;2023-04-08T03:41:35;94356.28;;;4.78;100.00
9721;BME280;4899;42.644;23.366;2023-04-08T03:44:01;94355.25;;;4.79;100.00
9721;BME280;4899;42.644;23.366;2023-04-08T03:46:26;94356.78;;;4.80;100.00
9721;BME280;4899;42.644;23.366;2023-04-08T03:48:52;94349.44;;;4.73;100.00
9721;BME280;4899;42.644;23.366;2023-04-08T03:51:17;94361.91;;;4.75;100.00
9721;BME280;4899;42.644;23.366;2023-04-08T03:53:43;94356.81;;;4.75;100.00
9721;BME280;4899;42.644;23.366;2023-04-08T03:56:08;94350.19;;;4.74;100.00
9721;BME280;4899;42.644;23.366;2023-04-08T03:58:34;94340.78;;;4.69;100.00
9721;BME280;4899;42.644;23.366;2023-04-08T04:01:00;94351.72;;;4.75;100.00
9721;BME280;4899;42.644;23.366;2023-04-08T04:03:25;94348.63;;;4.78;100.00
9721;BME280;4899;42.644;23.366;2023-04-08T04:05:51;94350.16;;;4.79;100.00
9721;BME280;4899;42.644;23.366;2023-04-08T04:08:16;94351.13;;;4.83;100.00
9721;BME280;4899;42.644;23.366;2023-04-08T04:10:42;94343.06;;;4.76;100.00
9721;BME280;4899;42.644;23.366;2023-04-08T04:13:07;94343.00;;;4.81;100.00
9721;BME280;4899;42.644;23.366;2023-04-08T04:15:37;94343.06;;;4.76;100.00
9721;BME280;4899;42.644;23.366;2023-04-08T04:18:03;94339.50;;;4.72;100.00
9721;BME280;4899;42.644;23.366;2023-04-08T04:20:28;94359.81;;;4.82;100.00
9721;BME280;4899;42.644;23.366;2023-04-08T04:22:54;94357.81;;;4.79;100.00
9721;BME280;4899;42.644;23.366;2023-04-08T04:25:20;94355.53;;;4.77;100.00
9721;BME280;4899;42.644;23.366;2023-04-08T04:27:45;94357.03;;;4.78;100.00
9721;BME280;4899;42.644;23.366;2023-04-08T04:30:11;94352.22;;;4.77;100.00
9721;BME280;4899;42.644;23.366;2023-04-08T04:32:40;94365.91;;;4.86;100.00
9721;BME280;4899;42.644;23.366;2023-04-08T04:35:05;94354.94;;;4.85;100.00
9721;BME280;4899;42.644;23.366;2023-04-08T04:37:31;94370.69;;;4.92;100.00
9721;BME280;4899;42.644;23.366;2023-04-08T04:39:56;94359.78;;;4.87;100.00
9721;BME280;4899;42.644;23.366;2023-04-08T04:42:22;94361.25;;;4.93;100.00
9721;BME280;4899;42.644;23.366;2023-04-08T04:44:47;94356.16;;;4.93;100.00
9721;BME280;4899;42.644;23.366;2023-04-08T04:47:13;94358.19;;;4.96;100.00
9721;BME280;4899;42.644;23.366;2023-04-08T04:49:40;94324.69;;;4.79;100.00
9721;BME280;4899;42.644;23.366;2023-04-08T04:52:06;94361.19;;;5.03;100.00
9721;BME280;4899;42.644;23.366;2023-04-08T04:54:31;94356.06;;;5.03;100.00
9721;BME280;4899;42.644;23.366;2023-04-08T04:56:57;94365.41;;;5.13;100.00
9721;BME280;4899;42.644;23.366;2023-04-08T04:59:22;94371.75;;;5.20;100.00
9721;BME280;4899;42.644;23.366;2023-04-08T05:01:48;94370.72;;;5.21;100.00
9721;BME280;4899;42.644;23.366;2023-04-08T05:04:13;94370.19;;;5.19;100.00
9721;BME280;4899;42.644;23.366;2023-04-08T05:06:39;94366.09;;;5.23;100.00
9721;BME280;4899;42.644;23.366;2023-04-08T05:09:04;94371.63;;;5.31;100.00
9721;BME280;4899;42.644;23.366;2023-04-08T05:11:30;94368.81;;;5.32;100.00
9721;BME280;4899;42.644;23.366;2023-04-08T05:13:55;94375.94;;;5.35;100.00
9721;BME280;4899;42.644;23.366;2023-04-08T05:16:20;94371.81;;;5.39;100.00
9721;BME280;4899;42.644;23.366;2023-04-08T05:18:46;94365.88;;;5.44;100.00
9721;BME280;4899;42.644;23.366;2023-04-08T05:21:11;94379.59;;;5.53;100.00
9721;BME280;4899;42.644;23.366;2023-04-08T05:23:37;94373.88;;;5.61;100.00
9721;BME280;4899;42.644;23.366;2023-04-08T05:26:06;94380.69;;;5.71;100.00
9721;BME280;4899;42.644;23.366;2023-04-08T05:28:31;94375.63;;;5.66;100.00
9721;BME280;4899;42.644;23.366;2023-04-08T05:30:57;94381.44;;;5.71;100.00
9721;BME280;4899;42.644;23.366;2023-04-08T05:33:22;94374.84;;;5.70;100.00
9721;BME280;4899;42.644;23.366;2023-04-08T05:35:47;94386.91;;;5.83;100.00
9721;BME280;4899;42.644;23.366;2023-04-08T05:38:13;94374.63;;;5.91;100.00
9721;BME280;4899;42.644;23.366;2023-04-08T05:40:38;94371.34;;;6.09;100.00
9721;BME280;4899;42.644;23.366;2023-04-08T05:43:04;94378.63;;;6.21;100.00
9721;BME280;4899;42.644;23.366;2023-04-08T05:45:29;94380.69;;;6.37;100.00
9721;BME280;4899;42.644;23.366;2023-04-08T05:47:55;94382.84;;;6.49;100.00
9721;BME280;4899;42.644;23.366;2023-04-08T05:50:21;94378.91;;;6.57;100.00
9721;BME280;4899;42.644;23.366;2023-04-08T05:52:46;94367.56;;;6.63;100.00
9721;BME280;4899;42.644;23.366;2023-04-08T05:55:12;94363.84;;;6.74;100.00
9721;BME280;4899;42.644;23.366;2023-04-08T05:57:38;94380.72;;;6.89;100.00
9721;BME280;4899;42.644;23.366;2023-04-08T06:00:08;94380.88;;;6.97;100.00
9721;BME280;4899;42.644;23.366;2023-04-08T06:02:34;94375.88;;;7.06;100.00
9721;BME280;4899;42.644;23.366;2023-04-08T06:05:01;94381.56;;;7.17;100.00
9721;BME280;4899;42.644;23.366;2023-04-08T06:07:28;94370.22;;;7.23;100.00
9721;BME280;4899;42.644;23.366;2023-04-08T06:09:53;94367.00;;;7.31;100.00
9721;BME280;4899;42.644;23.366;2023-04-08T06:12:19;94371.94;;;7.41;100.00
9721;BME280;4899;42.644;23.366;2023-04-08T06:14:45;94367.63;;;7.55;99.53
9721;BME280;4899;42.644;23.366;2023-04-08T06:17:10;94366.00;;;7.59;97.44
9721;BME280;4899;42.644;23.366;2023-04-08T06:19:36;94373.97;;;7.71;96.09
9721;BME280;4899;42.644;23.366;2023-04-08T06:22:01;94373.88;;;7.90;95.17
9721;BME280;4899;42.644;23.366;2023-04-08T06:24:27;94375.28;;;8.10;92.79
9721;BME280;4899;42.644;23.366;2023-04-08T06:26:54;94370.53;;;8.17;91.27
9721;BME280;4899;42.644;23.366;2023-04-08T06:29:21;94363.41;;;8.14;91.25
9721;BME280;4899;42.644;23.366;2023-04-08T06:31:47;94382.66;;;8.39;90.95
9721;BME280;4899;42.644;23.366;2023-04-08T06:34:13;94366.69;;;8.56;88.99
9721;BME280;4899;42.644;23.366;2023-04-08T06:36:38;94375.75;;;8.76;87.02
9721;BME280;4899;42.644;23.366;2023-04-08T06:39:04;94372.28;;;8.80;87.11
9721;BME280;4899;42.644;23.366;2023-04-08T06:41:29;94378.94;;;8.81;86.26
9721;BME280;4899;42.644;23.366;2023-04-08T06:43:55;94383.59;;;8.79;87.57
9721;BME280;4899;42.644;23.366;2023-04-08T06:46:20;94391.19;;;8.84;89.72
9721;BME280;4899;42.644;23.366;2023-04-08T06:48:46;94380.56;;;8.77;90.85
9721;BME280;4899;42.644;23.366;2023-04-08T06:51:11;94386.34;;;8.83;91.17
9721;BME280;4899;42.644;23.366;2023-04-08T06:53:37;94387.38;;;8.82;91.77
9721;BME280;4899;42.644;23.366;2023-04-08T06:56:02;94383.06;;;8.91;91.30
9721;BME280;4899;42.644;23.366;2023-04-08T06:58:28;94385.72;;;9.00;90.21
9721;BME280;4899;42.644;23.366;2023-04-08T07:00:54;94380.50;;;8.91;89.47
9721;BME280;4899;42.644;23.366;2023-04-08T07:03:20;94381.34;;;9.00;89.77
9721;BME280;4899;42.644;23.366;2023-04-08T07:05:46;94388.91;;;9.05;89.38
9721;BME280;4899;42.644;23.366;2023-04-08T07:08:11;94384.78;;;9.18;87.48
9721;BME280;4899;42.644;23.366;2023-04-08T07:10:37;94382.97;;;9.18;86.40
9721;BME280;4899;42.644;23.366;2023-04-08T07:13:02;94388.59;;;9.29;85.75
9721;BME280;4899;42.644;23.366;2023-04-08T07:15:28;94390.06;;;9.44;85.79
9721;BME280;4899;42.644;23.366;2023-04-08T07:17:53;94396.94;;;9.66;83.83
9721;BME280;4899;42.644;23.366;2023-04-08T07:20:22;94389.44;;;9.78;82.84
9721;BME280;4899;42.644;23.366;2023-04-08T07:22:49;94378.88;;;9.88;80.54
9721;BME280;4899;42.644;23.366;2023-04-08T07:25:15;94398.00;;;10.04;77.83
9721;BME280;4899;42.644;23.366;2023-04-08T07:27:40;94397.13;;;10.17;77.56
9721;BME280;4899;42.644;23.366;2023-04-08T07:30:06;94399.59;;;10.23;77.05
9721;BME280;4899;42.644;23.366;2023-04-08T07:32:32;94403.22;;;10.39;76.39
9721;BME280;4899;42.644;23.366;2023-04-08T07:34:59;94409.16;;;10.48;76.63
9721;BME280;4899;42.644;23.366;2023-04-08T07:37:25;94406.72;;;10.43;76.57
9721;BME280;4899;42.644;23.366;2023-04-08T07:39:50;94409.47;;;10.64;75.34
9721;BME280;4899;42.644;23.366;2023-04-08T07:42:16;94405.53;;;10.75;74.27
9721;BME280;4899;42.644;23.366;2023-04-08T07:44:42;94402.34;;;10.87;73.20
9721;BME280;4899;42.644;23.366;2023-04-08T07:47:09;94411.13;;;11.12;73.00
9721;BME280;4899;42.644;23.366;2023-04-08T07:49:36;94411.06;;;11.37;70.01
9721;BME280;4899;42.644;23.366;2023-04-08T07:52:01;94414.75;;;11.28;69.92
9721;BME280;4899;42.644;23.366;2023-04-08T07:54:27;94425.94;;;11.40;68.63
9721;BME280;4899;42.644;23.366;2023-04-08T07:56:52;94422.59;;;11.49;68.38
9721;BME280;4899;42.644;23.366;2023-04-08T07:59:18;94426.34;;;11.60;67.75
9721;BME280;4899;42.644;23.366;2023-04-08T08:01:43;94394.09;;;11.54;67.38
9721;BME280;4899;42.644;23.366;2023-04-08T08:04:08;94422.97;;;11.77;66.50
9721;BME280;4899;42.644;23.366;2023-04-08T08:06:34;94422.50;;;11.83;66.23
9721;BME280;4899;42.644;23.366;2023-04-08T08:09:00;94415.97;;;11.86;65.55
9721;BME280;4899;42.644;23.366;2023-04-08T08:11:25;94437.03;;;11.96;64.95
9721;BME280;4899;42.644;23.366;2023-04-08T08:13:52;94420.88;;;12.17;64.33
9721;BME280;4899;42.644;23.366;2023-04-08T08:16:18;94425.59;;;12.36;61.74
9721;BME280;4899;42.644;23.366;2023-04-08T08:18:43;94409.81;;;12.37;61.67
9721;BME280;4899;42.644;23.366;2023-04-08T08:21:09;94432.88;;;12.42;61.12
9721;BME280;4899;42.644;23.366;2023-04-08T08:23:35;94435.06;;;12.52;60.62
9721;BME280;4899;42.644;23.366;2023-04-08T08:26:06;94438.59;;;12.48;60.13
9721;BME280;4899;42.644;23.366;2023-04-08T08:28:32;94439.91;;;12.54;59.86
9721;BME280;4899;42.644;23.366;2023-04-08T08:30:58;94430.31;;;12.33;59.15
9721;BME280;4899;42.644;23.366;2023-04-08T08:33:24;94437.75;;;12.35;59.72
9721;BME280;4899;42.644;23.366;2023-04-08T08:35:50;94438.91;;;12.46;58.72
9721;BME280;4899;42.644;23.366;2023-04-08T08:38:16;94444.31;;;12.53;59.36
9721;BME280;4899;42.644;23.366;2023-04-08T08:40:42;94437.34;;;12.54;58.98
9721;BME280;4899;42.644;23.366;2023-04-08T08:43:09;94438.66;;;12.60;58.99
9721;BME280;4899;42.644;23.366;2023-04-08T08:45:41;94441.25;;;12.60;58.61
9721;BME280;4899;42.644;23.366;2023-04-08T08:48:07;94447.47;;;12.59;59.84
9721;BME280;4899;42.644;23.366;2023-04-08T08:50:35;94430.31;;;12.33;60.48
9721;BME280;4899;42.644;23.366;2023-04-08T08:53:00;94420.88;;;12.38;60.72
9721;BME280;4899;42.644;23.366;2023-04-08T08:55:29;94435.25;;;12.47;61.01
9721;BME280;4899;42.644;23.366;2023-04-08T08:57:56;94435.53;;;12.54;60.86
9721;BME280;4899;42.644;23.366;2023-04-08T09:00:38;94440.31;;;12.65;59.49
9721;BME280;4899;42.644;23.366;2023-04-08T09:03:26;94451.09;;;12.67;58.91
9721;BME280;4899;42.644;23.366;2023-04-08T09:05:57;94447.91;;;12.90;59.56
9721;BME280;4899;42.644;23.366;2023-04-08T09:10:48;94453.69;;;13.29;60.71
9721;BME280;4899;42.644;23.366;2023-04-08T09:13:13;94460.31;;;13.51;59.53
9721;BME280;4899;42.644;23.366;2023-04-08T09:16:05;94460.75;;;13.53;57.10
9721;BME280;4899;42.644;23.366;2023-04-08T09:18:32;94446.38;;;13.31;59.22
9721;BME280;4899;42.644;23.366;2023-04-08T09:21:01;94455.41;;;13.37;59.67
9721;BME280;4899;42.644;23.366;2023-04-08T09:26:23;94446.75;;;13.42;58.17
9721;BME280;4899;42.644;23.366;2023-04-08T09:31:24;94434.31;;;13.68;57.65
9721;BME280;4899;42.644;23.366;2023-04-08T09:33:55;94436.69;;;13.85;57.29
9721;BME280;4899;42.644;23.366;2023-04-08T09:36:21;94418.69;;;13.77;56.51
9721;BME280;4899;42.644;23.366;2023-04-08T09:38:47;94420.97;;;13.66;56.80
9721;BME280;4899;42.644;23.366;2023-04-08T09:41:15;94429.25;;;13.84;56.02
9721;BME280;4899;42.644;23.366;2023-04-08T09:43:43;94427.25;;;14.02;56.24
9721;BME280;4899;42.644;23.366;2023-04-08T09:46:17;94433.59;;;13.92;56.05
9721;BME280;4899;42.644;23.366;2023-04-08T09:49:04;94423.34;;;13.71;54.26
9721;BME280;4899;42.644;23.366;2023-04-08T09:51:35;94425.16;;;13.83;54.91
9721;BME280;4899;42.644;23.366;2023-04-08T09:54:12;94414.72;;;13.67;54.71
9721;BME280;4899;42.644;23.366;2023-04-08T09:56:43;94414.19;;;13.86;55.06
9721;BME280;4899;42.644;23.366;2023-04-08T09:59:16;94418.72;;;14.26;55.07
9721;BME280;4899;42.644;23.366;2023-04-08T10:01:49;94408.06;;;14.27;53.80
9721;BME280;4899;42.644;23.366;2023-04-08T10:04:19;94408.91;;;14.31;53.55
9721;BME280;4899;42.644;23.366;2023-04-08T10:06:52;94414.19;;;14.35;53.92
9721;BME280;4899;42.644;23.366;2023-04-08T10:09:22;94413.22;;;14.52;54.02
9721;BME280;4899;42.644;23.366;2023-04-08T10:11:48;94406.84;;;14.61;54.57
9721;BME280;4899;42.644;23.366;2023-04-08T10:14:14;94406.97;;;14.53;54.28
9721;BME280;4899;42.644;23.366;2023-04-08T10:16:39;94402.66;;;14.32;54.47
9721;BME280;4899;42.644;23.366;2023-04-08T10:19:39;94413.13;;;14.24;53.48
9721;BME280;4899;42.644;23.366;2023-04-08T10:25:33;94410.00;;;13.94;52.88
9721;BME280;4899;42.644;23.366;2023-04-08T10:28:22;94402.91;;;13.91;53.00
9721;BME280;4899;42.644;23.366;2023-04-08T10:30:49;94379.16;;;13.76;54.51
9721;BME280;4899;42.644;23.366;2023-04-08T10:33:17;94402.66;;;13.96;54.51
9721;BME280;4899;42.644;23.366;2023-04-08T10:35:48;94401.38;;;14.02;54.42
9721;BME280;4899;42.644;23.366;2023-04-08T10:38:15;94391.88;;;14.06;53.93
9721;BME280;4899;42.644;23.366;2023-04-08T10:40:43;94397.06;;;14.30;53.86
9721;BME280;4899;42.644;23.366;2023-04-08T10:43:09;94388.66;;;14.45;54.75
9721;BME280;4899;42.644;23.366;2023-04-08T10:45:35;94387.84;;;14.69;54.49
9721;BME280;4899;42.644;23.366;2023-04-08T10:48:21;94396.25;;;15.06;52.08
9721;BME280;4899;42.644;23.366;2023-04-08T10:51:02;94388.06;;;15.04;51.40
9721;BME280;4899;42.644;23.366;2023-04-08T10:53:35;94384.13;;;15.11;51.39
9721;BME280;4899;42.644;23.366;2023-04-08T10:56:09;94385.25;;;15.25;51.22
9721;BME280;4899;42.644;23.366;2023-04-08T10:58:57;94383.16;;;15.59;50.56
9721;BME280;4899;42.644;23.366;2023-04-08T11:01:24;94379.56;;;15.95;51.95
9721;BME280;4899;42.644;23.366;2023-04-08T11:03:49;94371.38;;;15.93;51.40
9721;BME280;4899;42.644;23.366;2023-04-08T11:06:15;94382.66;;;15.85;51.50
9721;BME280;4899;42.644;23.366;2023-04-08T11:08:42;94368.63;;;15.70;50.95
9721;BME280;4899;42.644;23.366;2023-04-08T11:11:09;94368.00;;;15.61;50.96
9721;BME280;4899;42.644;23.366;2023-04-08T11:13:38;94372.53;;;16.11;49.93
9721;BME280;4899;42.644;23.366;2023-04-08T11:16:05;94371.63;;;16.74;48.71
9721;BME280;4899;42.644;23.366;2023-04-08T11:18:31;94372.41;;;16.58;48.87
9721;BME280;4899;42.644;23.366;2023-04-08T11:20:59;94365.63;;;16.70;48.16
9721;BME280;4899;42.644;23.366;2023-04-08T11:23:24;94365.34;;;16.94;48.22
9721;BME280;4899;42.644;23.366;2023-04-08T11:25:50;94370.25;;;17.18;48.34
9721;BME280;4899;42.644;23.366;2023-04-08T11:28:17;94378.34;;;17.13;48.21
9721;BME280;4899;42.644;23.366;2023-04-08T11:30:43;94373.09;;;16.90;48.15
9721;BME280;4899;42.644;23.366;2023-04-08T11:33:09;94373.91;;;16.95;47.93
9721;BME280;4899;42.644;23.366;2023-04-08T11:35:39;94375.91;;;17.24;46.08
9721;BME280;4899;42.644;23.366;2023-04-08T11:38:07;94352.81;;;18.37;45.77
9721;BME280;4899;42.644;23.366;2023-04-08T11:40:32;94354.38;;;19.83;44.24
9721;BME280;4899;42.644;23.366;2023-04-08T11:42:58;94347.88;;;20.83;43.39
9721;BME280;4899;42.644;23.366;2023-04-08T11:45:23;94354.81;;;20.50;43.21
9721;BME280;4899;42.644;23.366;2023-04-08T11:47:49;94335.47;;;20.66;42.89
9721;BME280;4899;42.644;23.366;2023-04-08T11:50:24;94328.22;;;19.79;39.98
9721;BME280;4899;42.644;23.366;2023-04-08T11:52:51;94355.00;;;18.95;43.94
9721;BME280;4899;42.644;23.366;2023-04-08T11:55:30;94352.03;;;17.83;42.09
9721;BME280;4899;42.644;23.366;2023-04-08T11:57:56;94364.94;;;17.34;44.97
9721;BME280;4899;42.644;23.366;2023-04-08T12:00:26;94363.63;;;16.82;45.63
9721;BME280;4899;42.644;23.366;2023-04-08T12:02:52;94355.19;;;16.85;45.42
9721;BME280;4899;42.644;23.366;2023-04-08T12:05:19;94335.56;;;18.02;44.43
9721;BME280;4899;42.644;23.366;2023-04-08T12:07:44;94325.91;;;19.26;43.88
9721;BME280;4899;42.644;23.366;2023-04-08T12:10:10;94337.53;;;18.99;44.42
9721;BME280;4899;42.644;23.366;2023-04-08T12:12:36;94319.56;;;20.26;42.86
9721;BME280;4899;42.644;23.366;2023-04-08T12:15:02;94318.88;;;21.34;42.12
9721;BME280;4899;42.644;23.366;2023-04-08T12:17:28;94305.78;;;21.73;41.08
9721;BME280;4899;42.644;23.366;2023-04-08T12:19:53;94311.28;;;20.94;41.30
9721;BME280;4899;42.644;23.366;2023-04-08T12:22:19;94321.75;;;21.04;40.64
9721;BME280;4899;42.644;23.366;2023-04-08T12:24:45;94306.06;;;20.90;40.07
9721;BME280;4899;42.644;23.366;2023-04-08T12:27:10;94312.91;;;21.69;40.11
9721;BME280;4899;42.644;23.366;2023-04-08T12:29:37;94300.59;;;22.96;39.70
9721;BME280;4899;42.644;23.366;2023-04-08T12:32:03;94287.13;;;23.98;38.44
9721;BME280;4899;42.644;23.366;2023-04-08T12:34:30;94270.06;;;23.76;37.82
9721;BME280;4899;42.644;23.366;2023-04-08T12:36:55;94276.09;;;23.21;37.95
9721;BME280;4899;42.644;23.366;2023-04-08T12:39:21;94266.47;;;23.55;37.29
9721;BME280;4899;42.644;23.366;2023-04-08T12:41:47;94259.50;;;23.83;36.88
9721;BME280;4899;42.644;23.366;2023-04-08T12:44:12;94247.31;;;23.62;36.41
9721;BME280;4899;42.644;23.366;2023-04-08T12:46:38;94263.81;;;22.23;37.77
9721;BME280;4899;42.644;23.366;2023-04-08T12:49:03;94268.66;;;22.28;37.60
9721;BME280;4899;42.644;23.366;2023-04-08T12:51:29;94287.47;;;21.59;38.25
9721;BME280;4899;42.644;23.366;2023-04-08T12:53:55;94294.03;;;20.78;38.68
9721;BME280;4899;42.644;23.366;2023-04-08T12:56:20;94293.31;;;20.02;39.26
9721;BME280;4899;42.644;23.366;2023-04-08T12:58:46;94315.50;;;19.30;40.14
9721;BME280;4899;42.644;23.366;2023-04-08T13:01:12;94311.59;;;18.46;40.81
9721;BME280;4899;42.644;23.366;2023-04-08T13:03:37;94306.63;;;17.81;41.48
9721;BME280;4899;42.644;23.366;2023-04-08T13:06:03;94315.44;;;17.27;42.25
9721;BME280;4899;42.644;23.366;2023-04-08T13:08:28;94324.97;;;17.19;42.72
9721;BME280;4899;42.644;23.366;2023-04-08T13:10:54;94320.81;;;16.96;42.98
9721;BME280;4899;42.644;23.366;2023-04-08T13:13:19;94314.59;;;16.61;43.27
9721;BME280;4899;42.644;23.366;2023-04-08T13:15:45;94329.94;;;16.12;43.74
9721;BME280;4899;42.644;23.366;2023-04-08T13:18:11;94343.09;;;15.88;44.34
9721;BME280;4899;42.644;23.366;2023-04-08T13:20:37;94328.28;;;15.73;44.65
9721;BME280;4899;42.644;23.366;2023-04-08T13:23:03;94333.63;;;15.80;44.75
9721;BME280;4899;42.644;23.366;2023-04-08T13:25:28;94330.31;;;15.63;45.25
9721;BME280;4899;42.644;23.366;2023-04-08T13:27:54;94332.66;;;15.68;45.09
9721;BME280;4899;42.644;23.366;2023-04-08T13:30:20;94324.75;;;15.49;45.17